Time;durP1;ratioP1;P1;durP2;ratioP2;P2;SDS_P1;SDS_P2;PMS_P1;PMS_P2;Temp;Humidity;BMP_temperature;BMP_pressure;BME280_temperature;BME280_humidity;BME280_pressure;Samples;Min_cycle;Max_cycle;Signal;HPM_P1;HPM_P2
2022/01/31 00:01:55;;;;;;;21.80;4.18;;;4.30;99.90;;;;;;5030995;28;20077;-83
2022/01/31 00:04:21;;;;;;;26.48;5.38;;;4.40;99.90;;;;;;5029752;28;20053;-83
2022/01/31 00:06:48;;;;;;;16.15;4.43;;;4.40;99.90;;;;;;5031533;28;20057;-84
2022/01/31 00:09:16;;;;;;;19.88;4.35;;;4.30;99.90;;;;;;5029554;28;20507;-84
2022/01/31 00:11:45;;;;;;;30.15;5.63;;;4.40;99.90;;;;;;5030264;28;20053;-84
2022/01/31 00:14:28;;;;;;;26.17;5.10;;;4.80;99.90;;;;;;5030146;28;20053;-84
2022/01/31 00:16:53;;;;;;;21.15;5.07;;;4.90;99.90;;;;;;5031726;28;20048;-83
2022/01/31 00:19:19;;;;;;;17.58;4.57;;;4.70;99.90;;;;;;5031080;28;20053;-84
2022/01/31 00:21:45;;;;;;;20.77;5.30;;;4.30;99.90;;;;;;5030320;28;20053;-84
2022/01/31 00:24:11;;;;;;;24.67;5.10;;;4.60;99.90;;;;;;5013261;28;20057;-86
2022/01/31 00:26:36;;;;;;;20.40;5.47;;;4.70;99.90;;;;;;5031207;28;20049;-84
2022/01/31 00:29:02;;;;;;;23.60;5.43;;;4.30;99.90;;;;;;5030406;28;20045;-83
2022/01/31 00:31:27;;;;;;;24.60;6.40;;;4.30;99.90;;;;;;5030606;28;20045;-83
2022/01/31 00:33:53;;;;;;;26.83;6.05;;;4.30;99.90;;;;;;5031366;28;20045;-84
2022/01/31 00:36:19;;;;;;;25.02;6.22;;;4.40;99.90;;;;;;5031169;28;20037;-84
2022/01/31 00:38:44;;;;;;;28.10;7.07;;;4.20;99.90;;;;;;5031681;28;20041;-83
2022/01/31 00:41:11;;;;;;;27.58;7.07;;;4.30;99.90;;;;;;5030659;28;20111;-83
2022/01/31 00:43:37;;;;;;;14.35;4.63;;;4.30;99.90;;;;;;5029645;28;20054;-83
2022/01/31 00:46:10;;;;;;;26.60;6.75;;;4.50;99.90;;;;;;5029853;28;20053;-84
2022/01/31 00:48:42;;;;;;;21.83;7.03;;;4.40;99.90;;;;;;5030549;28;20053;-83
2022/01/31 00:51:08;;;;;;;23.30;6.40;;;4.30;99.90;;;;;;5029929;28;20041;-83
2022/01/31 00:53:34;;;;;;;25.05;6.88;;;4.70;99.90;;;;;;4996553;28;20151;-83
2022/01/31 00:56:00;;;;;;;25.85;7.85;;;4.30;99.90;;;;;;5029703;28;20461;-83
2022/01/31 00:58:25;;;;;;;26.80;7.18;;;5.20;99.90;;;;;;5030495;28;20560;-83
2022/01/31 01:00:51;;;;;;;33.28;7.47;;;4.80;99.90;;;;;;5030940;28;20392;-85
2022/01/31 01:03:17;;;;;;;28.80;7.85;;;4.40;99.90;;;;;;5030448;28;20506;-86
2022/01/31 01:05:42;;;;;;;27.50;8.35;;;4.40;99.90;;;;;;5030460;28;20566;-84
2022/01/31 01:08:08;;;;;;;32.50;7.68;;;4.40;99.90;;;;;;5030707;28;20052;-85
2022/01/31 01:10:34;;;;;;;24.40;8.07;;;4.40;99.90;;;;;;5030234;28;20102;-84
2022/01/31 01:12:59;;;;;;;32.17;8.93;;;4.40;99.90;;;;;;5030819;28;20064;-84
2022/01/31 01:15:25;;;;;;;21.85;7.68;;;4.40;99.90;;;;;;5029087;28;20095;-83
2022/01/31 01:17:51;;;;;;;27.80;8.68;;;4.30;99.90;;;;;;5029350;28;20785;-84
2022/01/31 01:20:16;;;;;;;29.63;8.38;;;4.60;99.90;;;;;;5030606;28;20053;-84
2022/01/31 01:22:44;;;;;;;28.08;10.75;;;4.70;99.90;;;;;;5029969;28;20073;-84
2022/01/31 01:25:11;;;;;;;27.88;9.38;;;4.20;99.90;;;;;;5029450;28;20486;-84
2022/01/31 01:27:36;;;;;;;28.67;8.98;;;4.20;99.90;;;;;;5030213;28;20618;-84
2022/01/31 01:30:03;;;;;;;28.95;9.68;;;4.20;99.90;;;;;;5030591;28;20132;-84
2022/01/31 01:32:33;;;;;;;26.48;9.20;;;4.20;99.90;;;;;;5030195;28;20067;-84
2022/01/31 01:35:03;;;;;;;29.38;10.00;;;4.20;99.90;;;;;;5029348;28;20187;-85
2022/01/31 01:37:28;;;;;;;29.27;10.30;;;4.50;99.90;;;;;;5028685;28;20049;-85
2022/01/31 01:39:54;;;;;;;33.20;10.73;;;4.20;99.90;;;;;;5030943;28;20380;-84
2022/01/31 01:42:20;;;;;;;32.80;11.35;;;4.30;99.90;;;;;;5029096;28;20053;-86
2022/01/31 01:44:47;;;;;;;29.60;11.40;;;4.90;99.90;;;;;;5030149;28;20037;-84
2022/01/31 01:47:21;;;;;;;39.15;13.52;;;3.90;99.90;;;;;;5013111;28;20057;-85
2022/01/31 01:49:47;;;;;;;23.75;11.13;;;3.90;99.90;;;;;;4996754;28;20482;-84
2022/01/31 01:52:13;;;;;;;29.42;11.73;;;3.90;99.90;;;;;;5029286;28;20050;-84
2022/01/31 01:54:38;;;;;;;31.83;13.95;;;4.00;99.90;;;;;;5028854;28;20528;-84
2022/01/31 01:57:04;;;;;;;29.23;12.60;;;4.40;99.90;;;;;;5013152;28;20061;-83
2022/01/31 01:59:34;;;;;;;34.13;14.80;;;3.80;99.90;;;;;;5029105;28;20060;-82
2022/01/31 02:02:00;;;;;;;31.27;14.50;;;3.80;99.90;;;;;;5029652;28;20053;-83
2022/01/31 02:04:27;;;;;;;33.13;15.25;;;3.70;99.90;;;;;;5029823;28;20480;-83
2022/01/31 02:06:53;;;;;;;34.83;15.80;;;3.70;99.90;;;;;;5030921;28;20049;-83
2022/01/31 02:09:21;;;;;;;38.90;16.38;;;3.80;99.90;;;;;;5030668;28;20048;-83
2022/01/31 02:11:47;;;;;;;40.88;17.83;;;3.80;99.90;;;;;;4997211;28;20115;-84
2022/01/31 02:14:13;;;;;;;38.38;17.38;;;3.50;99.90;;;;;;5029067;28;20437;-83
2022/01/31 02:16:39;;;;;;;42.45;17.75;;;3.90;99.90;;;;;;4996381;28;20057;-83
2022/01/31 02:19:06;;;;;;;34.97;17.83;;;3.40;99.90;;;;;;5029075;28;20054;-84
2022/01/31 02:21:32;;;;;;;35.15;17.55;;;3.50;99.90;;;;;;5032796;28;20045;-83
2022/01/31 02:23:57;;;;;;;40.67;18.67;;;3.30;99.90;;;;;;5000183;28;20050;-83
2022/01/31 02:26:23;;;;;;;44.55;19.65;;;3.90;99.90;;;;;;5032465;28;20048;-84
2022/01/31 02:28:49;;;;;;;48.03;23.67;;;3.30;99.90;;;;;;5032107;28;20716;-82
2022/01/31 02:31:14;;;;;;;36.35;20.30;;;3.20;99.90;;;;;;5034034;28;20099;-82
2022/01/31 02:33:41;;;;;;;37.30;18.77;;;3.20;99.90;;;;;;5033525;28;20045;-83
2022/01/31 02:36:07;;;;;;;38.45;19.65;;;3.50;99.90;;;;;;5016735;28;20054;-83
2022/01/31 02:38:33;;;;;;;40.38;20.70;;;3.80;99.90;;;;;;4999420;28;20099;-83
2022/01/31 02:40:59;;;;;;;41.08;21.60;;;3.30;99.90;;;;;;5016182;28;20056;-83
2022/01/31 02:43:32;;;;;;;39.65;21.58;;;4.00;99.90;;;;;;5015648;28;20057;-83
2022/01/31 02:45:58;;;;;;;39.07;20.47;;;3.20;99.90;;;;;;5032061;28;20049;-81
2022/01/31 02:48:27;;;;;;;38.72;21.77;;;4.10;99.90;;;;;;5031933;28;20684;-82
2022/01/31 02:50:53;;;;;;;36.67;20.77;;;3.20;99.90;;;;;;5031553;28;20041;-83
2022/01/31 02:55:48;;;;;;;45.75;23.42;;;3.30;99.90;;;;;;5032127;28;20137;-83
2022/01/31 02:58:14;;;;;;;45.58;22.38;;;3.60;99.90;;;;;;5016215;28;20124;-83
2022/01/31 03:00:39;;;;;;;41.63;22.15;;;3.80;99.90;;;;;;5031187;28;20474;-85
2022/01/31 03:03:05;;;;;;;36.40;21.70;;;3.30;99.90;;;;;;5032883;28;20065;-83
2022/01/31 03:05:31;;;;;;;35.83;20.42;;;3.30;99.90;;;;;;5031647;28;20069;-84
2022/01/31 03:07:58;;;;;;;34.15;20.88;;;3.20;99.90;;;;;;5032686;28;20450;-82
2022/01/31 03:10:23;;;;;;;30.70;18.90;;;3.40;99.90;;;;;;5031746;28;20053;-83
2022/01/31 03:12:49;;;;;;;35.20;16.40;;;3.70;99.90;;;;;;5014395;28;20084;-83
2022/01/31 03:15:15;;;;;;;30.52;16.85;;;3.70;99.90;;;;;;5015211;28;20049;-84
2022/01/31 03:17:45;;;;;;;28.98;18.02;;;3.90;99.90;;;;;;5014669;28;20119;-83
2022/01/31 03:20:11;;;;;;;27.77;16.90;;;3.40;99.90;;;;;;5032733;28;20140;-83
2022/01/31 03:22:37;;;;;;;25.85;15.90;;;3.40;99.90;;;;;;5031828;28;20128;-84
2022/01/31 03:25:03;;;;;;;22.75;14.60;;;3.50;99.90;;;;;;5031242;28;20037;-83
2022/01/31 03:27:28;;;;;;;25.05;15.90;;;3.40;99.90;;;;;;5032515;28;20037;-84
2022/01/31 03:29:54;;;;;;;19.83;11.60;;;3.70;99.90;;;;;;5030710;28;20140;-82
2022/01/31 03:32:20;;;;;;;23.83;14.00;;;3.50;99.90;;;;;;5030669;28;20384;-84
2022/01/31 03:34:45;;;;;;;25.75;13.95;;;3.50;99.90;;;;;;5032427;28;20479;-82
2022/01/31 03:37:11;;;;;;;25.05;14.43;;;3.70;99.90;;;;;;5032550;28;20487;-83
2022/01/31 03:39:36;;;;;;;30.45;14.40;;;3.50;99.90;;;;;;5032230;28;20049;-86
2022/01/31 03:42:02;;;;;;;27.55;16.73;;;3.50;99.90;;;;;;5030735;28;20053;-83
2022/01/31 03:44:29;;;;;;;22.30;14.63;;;3.50;99.90;;;;;;5032144;28;20049;-83
2022/01/31 03:46:56;;;;;;;27.05;15.02;;;3.50;99.90;;;;;;5014348;28;20045;-83
2022/01/31 03:49:21;;;;;;;27.88;15.50;;;3.70;99.90;;;;;;5014512;28;20128;-82
2022/01/31 03:51:47;;;;;;;24.75;13.48;;;3.50;99.90;;;;;;5014059;28;20191;-83
2022/01/31 03:54:13;;;;;;;29.40;14.80;;;4.20;99.90;;;;;;5030804;28;20049;-84
2022/01/31 03:56:39;;;;;;;29.92;14.85;;;5.20;99.90;;;;;;5031554;28;20041;-85
2022/01/31 03:59:05;;;;;;;29.15;14.90;;;4.40;99.90;;;;;;5014271;28;20053;-83
2022/01/31 04:01:30;;;;;;;33.13;15.10;;;3.90;99.90;;;;;;5032056;28;20479;-83
2022/01/31 04:03:56;;;;;;;27.25;14.32;;;4.10;99.90;;;;;;5013532;28;20083;-83
2022/01/31 04:06:23;;;;;;;36.15;14.82;;;4.00;99.90;;;;;;5031893;28;20045;-83
2022/01/31 04:08:50;;;;;;;31.02;13.23;;;4.70;99.90;;;;;;5031252;28;20402;-83
2022/01/31 04:11:15;;;;;;;36.10;13.00;;;4.60;99.90;;;;;;5031805;28;20044;-83
2022/01/31 04:13:41;;;;;;;37.30;13.52;;;4.50;99.90;;;;;;5031105;28;20041;-85
2022/01/31 04:16:07;;;;;;;37.97;12.63;;;4.40;99.90;;;;;;5013863;28;20045;-82
2022/01/31 04:18:32;;;;;;;26.38;10.95;;;4.50;99.90;;;;;;5030656;28;20141;-82
2022/01/31 04:20:59;;;;;;;34.97;10.50;;;4.60;99.90;;;;;;5029761;28;20056;-83
2022/01/31 04:23:27;;;;;;;39.30;8.82;;;4.80;99.90;;;;;;5030517;28;20463;-83
2022/01/31 04:26:01;;;;;;;43.63;7.93;;;4.90;99.90;;;;;;5030652;28;20104;-85
2022/01/31 04:28:32;;;;;;;25.52;6.57;;;5.20;99.90;;;;;;5015289;28;20097;-81
2022/01/31 04:31:12;;;;;;;38.28;8.77;;;5.10;99.90;;;;;;5031112;28;20461;-82
2022/01/31 04:33:38;;;;;;;29.48;5.90;;;5.20;99.90;;;;;;5015924;28;20499;-82
2022/01/31 04:36:04;;;;;;;24.17;4.78;;;5.40;99.90;;;;;;5030821;28;20047;-82
2022/01/31 04:38:30;;;;;;;36.00;7.50;;;5.40;99.90;;;;;;5031072;28;20507;-82
2022/01/31 04:40:55;;;;;;;24.48;4.28;;;5.40;99.90;;;;;;5030466;28;20083;-82
2022/01/31 04:43:21;;;;;;;25.55;5.65;;;5.40;99.90;;;;;;5013411;28;20539;-82
2022/01/31 04:45:48;;;;;;;27.17;4.82;;;5.70;99.90;;;;;;5013095;28;20503;-83
2022/01/31 04:48:17;;;;;;;21.52;3.70;;;5.30;99.90;;;;;;5029734;28;20568;-82
2022/01/31 04:50:43;;;;;;;17.08;2.83;;;5.30;99.90;;;;;;5029858;28;20133;-82
2022/01/31 04:53:10;;;;;;;19.50;2.90;;;5.10;99.90;;;;;;5028786;28;20128;-82
2022/01/31 04:55:36;;;;;;;16.02;2.92;;;5.00;99.90;;;;;;5013436;28;20411;-82
2022/01/31 04:58:02;;;;;;;17.02;3.30;;;4.90;99.90;;;;;;5012875;28;20124;-82
2022/01/31 05:00:27;;;;;;;15.70;2.97;;;4.80;99.90;;;;;;5031029;28;20045;-82
2022/01/31 05:02:54;;;;;;;20.55;3.75;;;4.80;99.90;;;;;;5028943;28;20456;-82
2022/01/31 05:05:20;;;;;;;23.88;4.03;;;4.80;99.90;;;;;;5029539;28;20141;-83
2022/01/31 05:07:45;;;;;;;19.55;3.47;;;4.90;99.90;;;;;;5013025;28;20128;-83
2022/01/31 05:10:11;;;;;;;25.23;4.28;;;4.80;99.90;;;;;;5029023;28;20053;-82
2022/01/31 05:12:37;;;;;;;19.67;3.45;;;4.80;99.90;;;;;;5013171;28;20049;-82
2022/01/31 05:15:04;;;;;;;18.10;3.17;;;4.80;99.90;;;;;;5012460;28;20103;-82
2022/01/31 05:17:29;;;;;;;18.52;3.35;;;4.80;99.90;;;;;;5013210;28;20061;-83
2022/01/31 05:19:55;;;;;;;26.70;4.55;;;4.90;99.90;;;;;;5030057;28;20576;-83
2022/01/31 05:22:21;;;;;;;23.33;4.18;;;5.20;99.90;;;;;;5029168;28;20045;-82
2022/01/31 05:24:46;;;;;;;30.65;4.47;;;5.40;99.90;;;;;;5030437;28;20090;-82
2022/01/31 05:27:13;;;;;;;23.35;4.90;;;5.60;99.90;;;;;;5028966;28;20099;-83
2022/01/31 05:29:38;;;;;;;25.08;3.42;;;5.40;99.90;;;;;;5029487;28;20056;-83
2022/01/31 05:32:04;;;;;;;27.98;4.05;;;5.00;99.90;;;;;;5030191;28;20043;-82
2022/01/31 05:34:30;;;;;;;19.45;3.47;;;5.00;99.90;;;;;;5029149;28;20166;-84
2022/01/31 05:36:56;;;;;;;15.15;2.67;;;5.10;99.90;;;;;;5029176;28;20100;-83
2022/01/31 05:39:25;;;;;;;14.13;2.33;;;5.00;99.90;;;;;;5030757;28;20054;-82
2022/01/31 05:41:52;;;;;;;9.80;2.00;;;5.00;99.90;;;;;;5029572;28;20487;-85
2022/01/31 05:44:18;;;;;;;12.60;2.55;;;5.00;99.90;;;;;;5029413;28;20053;-83
2022/01/31 05:46:44;;;;;;;13.52;2.35;;;5.00;99.90;;;;;;4996468;28;20057;-83
2022/01/31 05:49:09;;;;;;;9.88;2.03;;;5.30;99.90;;;;;;5028488;28;20160;-83
2022/01/31 05:51:36;;;;;;;13.68;2.10;;;4.80;99.90;;;;;;5028905;28;20085;-83
2022/01/31 05:54:01;;;;;;;12.75;2.25;;;4.80;99.90;;;;;;5012536;28;20446;-83
2022/01/31 05:56:27;;;;;;;9.85;1.80;;;4.70;99.90;;;;;;5032243;28;20103;-82
2022/01/31 05:58:53;;;;;;;6.85;1.48;;;4.70;99.90;;;;;;5034073;28;20061;-83
2022/01/31 06:01:18;;;;;;;12.25;1.80;;;5.40;99.90;;;;;;5033880;28;20601;-82
2022/01/31 06:03:44;;;;;;;7.88;1.58;;;4.60;99.90;;;;;;5016512;28;20076;-83
2022/01/31 06:06:10;;;;;;;9.43;1.88;;;4.60;99.90;;;;;;5032173;28;20115;-83
2022/01/31 06:08:35;;;;;;;11.00;1.83;;;4.60;99.90;;;;;;5032934;28;20088;-82
2022/01/31 06:11:01;;;;;;;12.23;2.10;;;4.60;99.90;;;;;;5016037;28;20060;-82
2022/01/31 06:13:31;;;;;;;13.82;2.15;;;4.70;99.90;;;;;;5032907;28;20132;-84
2022/01/31 06:15:57;;;;;;;10.25;1.77;;;4.60;99.90;;;;;;5032740;28;20132;-85
2022/01/31 06:18:22;;;;;;;7.40;1.70;;;4.70;99.90;;;;;;5032677;28;20136;-83
2022/01/31 06:20:48;;;;;;;9.60;1.60;;;4.60;99.90;;;;;;5034266;28;20053;-82
2022/01/31 06:23:13;;;;;;;14.32;1.70;;;4.60;99.90;;;;;;5032993;28;20124;-83
2022/01/31 06:25:39;;;;;;;15.70;2.00;;;4.80;99.90;;;;;;5033338;28;20107;-83
2022/01/31 06:28:06;;;;;;;13.27;2.05;;;4.70;99.90;;;;;;5033330;28;20080;-85
2022/01/31 06:30:32;;;;;;;12.32;2.00;;;4.50;99.90;;;;;;5032866;28;20088;-86
2022/01/31 06:32:57;;;;;;;17.05;3.15;;;4.60;99.90;;;;;;5000234;28;20104;-86
2022/01/31 06:35:24;;;;;;;11.40;1.70;;;4.70;99.90;;;;;;5033469;28;20148;-87
2022/01/31 06:37:49;;;;;;;14.30;2.38;;;5.90;99.90;;;;;;5000029;28;20352;-85
2022/01/31 06:40:15;;;;;;;6.40;1.33;;;4.70;99.90;;;;;;5015874;28;20049;-85
2022/01/31 06:42:41;;;;;;;19.25;2.50;;;5.40;99.90;;;;;;5016283;28;20513;-84
2022/01/31 06:45:07;;;;;;;10.52;1.80;;;4.70;99.90;;;;;;5015641;28;20042;-86
2022/01/31 06:47:33;;;;;;;13.60;2.28;;;4.70;99.90;;;;;;5032416;28;20049;-85
2022/01/31 06:49:59;;;;;;;14.55;2.85;;;4.70;99.90;;;;;;5032217;28;20416;-85
2022/01/31 06:52:26;;;;;;;10.43;2.28;;;4.70;99.90;;;;;;5015593;28;20119;-85
2022/01/31 06:54:54;;;;;;;14.75;2.40;;;4.70;99.90;;;;;;5000140;28;20047;-86
2022/01/31 06:57:23;;;;;;;13.75;2.83;;;4.70;99.90;;;;;;5015359;28;20050;-83
2022/01/31 06:59:49;;;;;;;14.40;2.05;;;4.60;99.90;;;;;;5032489;28;20112;-82
2022/01/31 07:02:14;;;;;;;20.55;2.70;;;4.70;99.90;;;;;;5033070;28;20049;-81
2022/01/31 07:04:40;;;;;;;10.60;2.72;;;4.70;99.90;;;;;;5032233;28;20064;-82
2022/01/31 07:07:06;;;;;;;10.95;2.35;;;4.70;99.90;;;;;;5031496;28;20052;-83
2022/01/31 07:09:34;;;;;;;8.73;1.75;;;4.70;99.90;;;;;;5015727;28;20128;-83
2022/01/31 07:12:02;;;;;;;13.57;2.00;;;4.80;99.90;;;;;;5015523;28;20296;-83
2022/01/31 07:14:31;;;;;;;10.32;1.85;;;4.80;99.90;;;;;;5015516;28;20088;-84
2022/01/31 07:17:03;;;;;;;12.48;1.83;;;4.80;99.90;;;;;;5033153;28;20091;-83
2022/01/31 07:19:32;;;;;;;14.93;2.00;;;4.80;99.90;;;;;;5032818;28;20057;-84
2022/01/31 07:21:58;;;;;;;12.73;1.88;;;4.80;99.90;;;;;;5016024;28;20064;-83
2022/01/31 07:24:43;;;;;;;15.63;2.10;;;4.80;99.90;;;;;;5032343;28;20046;-84
2022/01/31 07:27:08;;;;;;;13.82;1.90;;;4.80;99.90;;;;;;5031226;28;20053;-83
2022/01/31 07:29:34;;;;;;;16.30;2.47;;;4.80;99.90;;;;;;5032777;28;20045;-83
2022/01/31 07:32:00;;;;;;;19.90;2.90;;;4.80;99.90;;;;;;5015212;28;20061;-83
2022/01/31 07:34:26;;;;;;;25.70;3.33;;;5.40;99.90;;;;;;4998994;28;20049;-84
2022/01/31 07:36:52;;;;;;;20.75;3.10;;;4.90;99.90;;;;;;5031501;28;20060;-83
2022/01/31 07:39:18;;;;;;;19.05;3.33;;;4.90;99.90;;;;;;5014614;28;20053;-84
2022/01/31 07:41:43;;;;;;;16.90;2.67;;;4.90;99.90;;;;;;5031624;28;20503;-82
2022/01/31 07:44:09;;;;;;;19.42;2.40;;;4.90;99.90;;;;;;5030841;28;20526;-83
2022/01/31 07:46:35;;;;;;;16.33;2.20;;;4.90;99.90;;;;;;5014890;28;20056;-84
2022/01/31 07:49:04;;;;;;;20.23;2.55;;;4.90;99.90;;;;;;5015048;28;20372;-88
2022/01/31 07:51:29;;;;;;;18.77;2.40;;;4.90;99.90;;;;;;4998352;28;20041;-85
2022/01/31 07:53:55;;;;;;;15.40;2.40;;;5.30;99.90;;;;;;5014885;28;20063;-85
2022/01/31 07:56:21;;;;;;;12.57;3.33;;;5.00;99.90;;;;;;5031356;28;20057;-85
2022/01/31 07:58:47;;;;;;;14.10;2.10;;;5.00;99.90;;;;;;5032250;28;20042;-84
2022/01/31 08:01:12;;;;;;;17.48;2.60;;;5.00;99.90;;;;;;5013964;28;20061;-85
2022/01/31 08:03:38;;;;;;;10.52;1.80;;;5.00;99.90;;;;;;5031951;28;20053;-85
2022/01/31 08:06:04;;;;;;;11.98;2.20;;;5.40;99.90;;;;;;5014747;28;20060;-84
2022/01/31 08:08:31;;;;;;;17.95;1.88;;;6.60;99.90;;;;;;5014355;28;20107;-84
2022/01/31 08:10:57;;;;;;;15.15;1.85;;;5.00;99.90;;;;;;5031804;28;20414;-84
2022/01/31 08:13:24;;;;;;;16.98;2.05;;;5.00;99.90;;;;;;5030301;28;20045;-85
2022/01/31 08:18:46;;;;;;;14.55;2.20;;;5.10;99.90;;;;;;5016892;28;20096;-85
2022/01/31 08:21:13;;;;;;;15.88;2.25;;;5.10;99.90;;;;;;5031758;28;20081;-85
2022/01/31 08:23:39;;;;;;;17.40;2.47;;;5.10;99.90;;;;;;5030461;28;20057;-84
2022/01/31 08:26:08;;;;;;;16.00;2.60;;;5.20;99.90;;;;;;5030312;28;20119;-84
2022/01/31 08:28:42;;;;;;;10.75;2.15;;;5.20;99.90;;;;;;5030090;28;20049;-84
2022/01/31 08:31:18;;;;;;;;;;;5.20;99.90;;;;;;5031149;28;20081;-86
2022/01/31 08:34:04;;;;;;;10.02;2.00;;;5.20;99.90;;;;;;5030787;28;20027;-89
2022/01/31 08:36:34;;;;;;;16.77;2.80;;;5.40;99.90;;;;;;5016513;28;20527;-87
2022/01/31 08:39:00;;;;;;;14.10;2.17;;;5.40;99.90;;;;;;5031990;28;20522;-88
2022/01/31 08:41:26;;;;;;;8.35;2.15;;;5.40;99.90;;;;;;5013729;28;20064;-85
2022/01/31 08:43:51;;;;;;;7.63;2.10;;;5.40;99.90;;;;;;5013700;28;20415;-83
2022/01/31 08:46:18;;;;;;;13.07;2.40;;;5.30;99.90;;;;;;5029326;28;20041;-85
2022/01/31 08:48:44;;;;;;;11.60;1.95;;;5.30;99.90;;;;;;5029613;28;20395;-84
2022/01/31 08:51:10;;;;;;;14.55;2.10;;;5.50;99.90;;;;;;5029549;28;20057;-84
2022/01/31 08:53:36;;;;;;;13.60;2.40;;;6.00;99.90;;;;;;5013043;28;20229;-84
2022/01/31 08:56:11;;;;;;;10.15;2.10;;;6.40;99.90;;;;;;5030814;28;20491;-84
2022/01/31 08:58:45;;;;;;;12.23;1.92;;;5.80;99.90;;;;;;5028977;28;20490;-83
2022/01/31 09:01:12;;;;;;;12.00;1.97;;;5.80;99.90;;;;;;5014225;28;20057;-83
2022/01/31 09:06:07;;;;;;;14.35;2.97;;;5.90;99.90;;;;;;5029285;28;20192;-84
2022/01/31 09:08:33;;;;;;;9.18;2.10;;;5.80;99.90;;;;;;5029044;28;20049;-89
2022/01/31 09:10:59;;;;;;;10.98;2.50;;;6.00;99.90;;;;;;5013209;28;20064;-85
2022/01/31 09:13:25;;;;;;;11.88;2.25;;;5.90;99.90;;;;;;5029213;28;20056;-85
2022/01/31 09:15:51;;;;;;;10.45;2.10;;;5.90;99.90;;;;;;5029419;28;20498;-86
2022/01/31 09:18:16;;;;;;;13.23;2.50;;;6.30;99.90;;;;;;5029641;28;20052;-87
2022/01/31 09:20:42;;;;;;;14.60;2.53;;;5.80;99.90;;;;;;5029027;28;21054;-84
2022/01/31 09:23:08;;;;;;;13.45;2.33;;;5.90;99.90;;;;;;5029756;28;20060;-83
2022/01/31 09:25:34;;;;;;;17.17;3.17;;;6.30;99.90;;;;;;5029910;28;20054;-84
2022/01/31 09:28:00;;;;;;;9.88;2.50;;;6.00;99.90;;;;;;5031312;28;20049;-83
2022/01/31 09:30:27;;;;;;;15.25;2.50;;;7.80;99.90;;;;;;5031089;28;20494;-85
2022/01/31 09:32:56;;;;;;;13.25;3.08;;;6.50;99.90;;;;;;5034101;28;20132;-84
2022/01/31 09:35:22;;;;;;;12.13;2.00;;;6.60;99.90;;;;;;5043223;28;20037;-87
2022/01/31 09:37:48;;;;;;;9.45;2.17;;;6.50;99.90;;;;;;5022909;28;20509;-82
2022/01/31 09:40:19;;;;;;;9.18;2.00;;;6.80;99.90;;;;;;5019093;28;20071;-83
2022/01/31 09:48:35;;;;;;;10.23;1.55;;;8.20;99.90;;;;;;5017545;28;20067;-83
2022/01/31 09:51:22;;;;;;;12.82;2.10;;;8.00;99.90;;;;;;5018404;28;20111;-84
2022/01/31 09:53:49;;;;;;;13.27;1.83;;;7.50;99.90;;;;;;5033751;28;20150;-85
2022/01/31 09:56:24;;;;;;;12.10;1.88;;;7.50;99.90;;;;;;5033443;28;20474;-84
2022/01/31 09:58:51;;;;;;;8.88;1.70;;;7.40;99.90;;;;;;5033395;28;20262;-84
2022/01/31 10:01:22;;;;;;;11.20;2.47;;;7.40;99.90;;;;;;5034252;28;20045;-85
2022/01/31 10:03:49;;;;;;;9.52;1.77;;;7.30;99.90;;;;;;5015622;28;20064;-84
2022/01/31 10:06:25;;;;;;;8.32;2.13;;;7.30;99.90;;;;;;5032607;28;20096;-84
2022/01/31 10:09:06;;;;;;;11.18;1.67;;;7.20;99.90;;;;;;5016587;28;20167;-84
2022/01/31 10:11:57;;;;;;;9.57;2.25;;;7.20;99.90;;;;;;5032255;28;20446;-84
2022/01/31 10:17:20;;;;;;;8.10;1.50;;;7.50;99.90;;;;;;5018979;28;20154;-85
2022/01/31 10:19:46;;;;;;;8.80;1.40;;;7.60;99.90;;;;;;5032816;28;20128;-86
2022/01/31 10:22:16;;;;;;;10.43;1.50;;;8.30;99.90;;;;;;5032489;28;20542;-86
2022/01/31 10:24:44;;;;;;;11.80;1.80;;;8.50;99.90;;;;;;5032757;28;20045;-85
2022/01/31 10:27:29;;;;;;;11.15;1.42;;;8.90;99.90;;;;;;5031951;28;20175;-86
2022/01/31 10:30:08;;;;;;;11.00;1.98;;;8.80;99.90;;;;;;5032187;28;20053;-84
2022/01/31 10:32:36;;;;;;;10.95;1.55;;;8.70;99.90;;;;;;5015831;28;20060;-86
2022/01/31 10:35:04;;;;;;;9.80;1.42;;;8.40;99.90;;;;;;5032390;28;20111;-84
2022/01/31 10:37:31;;;;;;;10.73;1.92;;;8.30;99.90;;;;;;5032314;28;20092;-84
2022/01/31 10:56:51;;;;;;;13.35;2.15;;;8.40;99.90;;;;;;5011649;28;20196;-85
2022/01/31 10:59:34;;;;;;;8.77;1.90;;;8.20;99.90;;;;;;5012616;28;20057;-83
2022/01/31 11:02:01;;;;;;;10.88;1.85;;;8.20;99.90;;;;;;5012753;28;20657;-86
2022/01/31 11:04:38;;;;;;;12.50;1.95;;;8.30;99.90;;;;;;4979562;28;20055;-86
2022/01/31 11:07:06;;;;;;;12.27;1.60;;;8.00;99.90;;;;;;4996392;28;20161;-89
2022/01/31 11:09:32;;;;;;;15.85;2.33;;;8.00;99.90;;;;;;5018655;28;20048;-88
2022/01/31 11:11:58;;;;;;;9.68;1.65;;;7.70;99.90;;;;;;5031277;28;20041;-88
2022/01/31 11:14:26;;;;;;;13.38;2.60;;;7.70;99.90;;;;;;5031771;28;20497;-89
2022/01/31 11:16:54;;;;;;;14.77;2.45;;;7.60;99.90;;;;;;5031354;28;20580;-89
2022/01/31 11:19:28;;;;;;;15.10;2.08;;;7.70;99.90;;;;;;5031761;28;20144;-88
2022/01/31 11:21:59;;;;;;;11.88;2.00;;;7.80;99.90;;;;;;5016753;28;20049;-88
2022/01/31 11:24:30;;;;;;;12.60;2.08;;;8.00;99.90;;;;;;5031891;28;20037;-88
2022/01/31 11:27:02;;;;;;;9.65;2.05;;;7.90;99.90;;;;;;5032390;28;20044;-88
2022/01/31 11:29:28;;;;;;;11.20;2.20;;;7.90;99.90;;;;;;5015125;28;20053;-88
2022/01/31 11:31:54;;;;;;;14.82;2.22;;;7.80;99.90;;;;;;5014757;28;20049;-88
2022/01/31 11:34:19;;;;;;;14.85;2.63;;;7.80;99.90;;;;;;5015257;28;20119;-88
2022/01/31 11:36:47;;;;;;;12.70;2.42;;;8.00;99.90;;;;;;5031619;28;20060;-92
2022/01/31 11:39:14;;;;;;;9.27;1.55;;;8.10;99.90;;;;;;5034926;28;20141;-92
2022/01/31 11:41:48;;;;;;;8.43;2.13;;;9.10;99.90;;;;;;5000483;28;20152;-90
2022/01/31 11:44:17;;;;;;;;;;;8.30;99.90;;;;;;5003091;28;20057;-93
2022/01/31 11:46:42;;;;;;;13.93;2.30;;;8.30;99.90;;;;;;5031937;28;19921;-92
2022/01/31 11:49:09;;;;;;;10.80;2.00;;;9.70;99.90;;;;;;5031784;28;20049;-92
2022/01/31 11:51:41;;;;;;;16.00;2.90;;;8.40;99.90;;;;;;5031271;28;20053;-91
2022/01/31 11:54:07;;;;;;;14.68;2.28;;;8.40;99.90;;;;;;5000851;28;20064;-92
2022/01/31 11:56:33;;;;;;;13.43;2.10;;;8.40;99.90;;;;;;5017062;28;20053;-89
2022/01/31 11:58:59;;;;;;;15.55;2.70;;;8.50;99.90;;;;;;5031596;28;20064;-87
2022/01/31 12:01:24;;;;;;;17.13;3.35;;;8.50;99.90;;;;;;5030827;28;20095;-87
2022/01/31 12:03:57;;;;;;;18.38;2.42;;;8.60;99.90;;;;;;5030047;28;20152;-87
2022/01/31 12:06:23;;;;;;;14.10;2.20;;;8.80;99.90;;;;;;5031112;28;20089;-86
2022/01/31 12:08:52;;;;;;;13.55;2.38;;;8.70;99.90;;;;;;5014708;28;20065;-87
2022/01/31 12:11:24;;;;;;;9.48;3.00;;;8.50;99.90;;;;;;5013987;28;20046;-87
2022/01/31 12:13:53;;;;;;;10.73;2.08;;;8.50;99.90;;;;;;5015231;28;20147;-86
2022/01/31 12:16:50;;;;;;;13.38;2.67;;;8.60;99.90;;;;;;5039270;28;20060;-88
2022/01/31 12:19:44;;;;;;;15.15;2.00;;;8.40;99.90;;;;;;5021469;28;20065;-86
2022/01/31 12:22:45;;;;;;;14.70;2.30;;;8.30;99.90;;;;;;5033917;28;20052;-87
2022/01/31 12:25:23;;;;;;;12.25;2.75;;;8.30;99.90;;;;;;5032700;28;20272;-85
2022/01/31 12:27:49;;;;;;;13.20;2.75;;;8.30;99.90;;;;;;5015042;28;20128;-87
2022/01/31 12:30:32;;;;;;;16.08;2.42;;;8.30;99.90;;;;;;5030724;28;20129;-87
2022/01/31 12:32:58;;;;;;;17.10;3.15;;;8.40;99.90;;;;;;5030488;28;20053;-87
2022/01/31 12:35:33;;;;;;;16.23;3.10;;;8.40;99.90;;;;;;5030479;28;20777;-86
2022/01/31 12:37:58;;;;;;;18.77;2.92;;;8.20;99.90;;;;;;5014488;28;20080;-86
2022/01/31 12:40:29;;;;;;;16.98;2.80;;;8.10;99.90;;;;;;5036347;28;20064;-87
2022/01/31 12:45:37;;;;;;;25.25;4.72;;;8.30;99.90;;;;;;5042292;28;20079;-88
2022/01/31 12:48:07;;;;;;;16.98;2.85;;;8.30;99.90;;;;;;5037144;28;20081;-86
2022/01/31 12:50:45;;;;;;;14.23;2.97;;;8.50;99.90;;;;;;5032244;28;20045;-86
2022/01/31 12:53:23;;;;;;;17.17;2.58;;;8.50;99.90;;;;;;5029238;28;20057;-87
2022/01/31 12:56:09;;;;;;;14.25;3.78;;;8.50;99.90;;;;;;5029646;28;20450;-87
2022/01/31 12:58:55;;;;;;;17.08;2.60;;;8.30;99.90;;;;;;5029808;28;20087;-88
2022/01/31 13:01:28;;;;;;;15.77;2.60;;;8.10;99.90;;;;;;5013658;28;20565;-87
2022/01/31 13:03:55;;;;;;;17.13;2.67;;;8.00;99.90;;;;;;5012304;28;20167;-89
2022/01/31 13:06:33;;;;;;;17.35;2.95;;;7.90;99.90;;;;;;5029708;28;20053;-87
2022/01/31 13:09:15;;;;;;;17.00;2.92;;;8.10;99.90;;;;;;5029399;28;20053;-86
2022/01/31 13:11:42;;;;;;;10.57;2.42;;;8.10;99.90;;;;;;5029618;28;20608;-88
2022/01/31 13:14:09;;;;;;;19.27;3.38;;;8.20;99.90;;;;;;5012832;28;20049;-87
2022/01/31 13:16:57;;;;;;;19.17;3.05;;;8.20;99.90;;;;;;5030442;28;20045;-87
2022/01/31 13:19:24;;;;;;;21.50;3.70;;;8.30;99.90;;;;;;5029507;28;20483;-87
2022/01/31 13:21:50;;;;;;;15.23;3.00;;;8.30;99.90;;;;;;5029433;28;20127;-87
2022/01/31 13:24:17;;;;;;;17.50;3.55;;;8.40;99.90;;;;;;4996325;28;20140;-88
2022/01/31 13:26:53;;;;;;;16.48;3.22;;;8.30;99.90;;;;;;5029127;28;20044;-87